createdAt,value
2022-09-18T00:01:43.009Z,100148.72
2022-09-18T00:04:15.169Z,100152.72
2022-09-18T00:06:45.976Z,100147.09
2022-09-18T00:09:16.588Z,100145.41
2022-09-18T00:11:51.113Z,100146.53
2022-09-18T00:14:23.324Z,100142.00
2022-09-18T00:16:52.094Z,100131.81
2022-09-18T00:19:21.228Z,100147.66
2022-09-18T00:21:52.417Z,100130.31
2022-09-18T00:24:22.306Z,100131.41
2022-09-18T00:26:52.852Z,100131.97
2022-09-18T00:29:21.280Z,100131.84
2022-09-18T00:31:51.590Z,100129.25
2022-09-18T00:34:20.026Z,100135.53
2022-09-18T00:36:48.430Z,100116.31
2022-09-18T00:39:16.831Z,100119.47
2022-09-18T00:41:46.122Z,100121.81
2022-09-18T00:44:38.055Z,100123.44
2022-09-18T00:47:18.910Z,100122.38
2022-09-18T00:49:53.719Z,100120.44
2022-09-18T00:52:28.212Z,100125.06
2022-09-18T00:55:01.972Z,100122.50
2022-09-18T00:57:34.861Z,100110.78
2022-09-18T01:00:11.839Z,100108.97
2022-09-18T01:02:41.548Z,100110.91
2022-09-18T01:05:11.882Z,100110.06
2022-09-18T01:07:58.889Z,100112.66
2022-09-18T01:10:45.140Z,100107.81
2022-09-18T01:13:27.333Z,100108.78
2022-09-18T01:16:04.900Z,100108.59
2022-09-18T01:18:44.695Z,100104.53
2022-09-18T01:21:14.543Z,100112.81
2022-09-18T01:24:37.681Z,100111.28
2022-09-18T01:27:08.428Z,100115.94
2022-09-18T01:29:53.550Z,100108.22
2022-09-18T01:32:29.172Z,100115.56
2022-09-18T01:35:18.638Z,100115.47
2022-09-18T01:37:57.482Z,100123.06
2022-09-18T01:40:32.541Z,100116.88
2022-09-18T01:43:05.535Z,100127.53
2022-09-18T01:45:39.631Z,100134.44
2022-09-18T01:48:09.874Z,100133.59
2022-09-18T01:50:49.445Z,100132.81
2022-09-18T01:53:24.767Z,100130.31
2022-09-18T01:55:57.994Z,100139.53
2022-09-18T01:58:29.233Z,100135.81
2022-09-18T02:01:05.688Z,100133.19
2022-09-18T02:03:40.492Z,100139.66
2022-09-18T02:06:14.567Z,100141.03
2022-09-18T02:08:48.781Z,100148.41
2022-09-18T02:11:20.240Z,100134.13
2022-09-18T02:13:55.705Z,100143.91
2022-09-18T02:16:38.007Z,100140.44
2022-09-18T02:19:12.113Z,100133.44
2022-09-18T02:21:44.869Z,100142.13
2022-09-18T02:24:16.938Z,100134.50
2022-09-18T02:26:49.798Z,100127.31
2022-09-18T02:29:19.973Z,100127.94
2022-09-18T02:31:50.809Z,100125.03
2022-09-18T02:34:21.160Z,100122.75
2022-09-18T02:37:16.884Z,100131.13
2022-09-18T02:40:11.452Z,100137.97
2022-09-18T02:42:53.605Z,100129.72
2022-09-18T02:45:32.137Z,100135.25
2022-09-18T02:48:48.090Z,100126.47
2022-09-18T02:51:29.798Z,100125.19
2022-09-18T02:54:06.798Z,100131.19
2022-09-18T02:56:42.752Z,100137.06
2022-09-18T02:59:16.529Z,100136.28
2022-09-18T03:01:50.796Z,100130.91
2022-09-18T03:04:26.026Z,100134.91
2022-09-18T03:07:15.919Z,100131.06
2022-09-18T03:09:47.274Z,100119.13
2022-09-18T03:12:17.339Z,100117.56
2022-09-18T03:14:50.038Z,100107.97
2022-09-18T03:17:19.208Z,100110.03
2022-09-18T03:19:49.110Z,100104.50
2022-09-18T03:22:17.362Z,100105.34
2022-09-18T03:24:45.579Z,100102.75
2022-09-18T03:27:18.286Z,100106.00
2022-09-18T03:29:46.934Z,100099.56
2022-09-18T03:32:17.991Z,100101.97
2022-09-18T03:34:50.399Z,100100.38
2022-09-18T03:37:18.605Z,100104.50
2022-09-18T03:39:48.436Z,100103.13
2022-09-18T03:42:17.208Z,100099.03
2022-09-18T03:44:46.060Z,100102.56
2022-09-18T03:47:27.876Z,100097.19
2022-09-18T03:49:58.129Z,100100.06
2022-09-18T03:52:26.696Z,100099.38
2022-09-18T03:55:00.024Z,100101.56
2022-09-18T03:58:00.447Z,100117.88
2022-09-18T04:00:48.179Z,100109.78
2022-09-18T04:03:25.789Z,100111.44
2022-09-18T04:06:19.073Z,100112.09
2022-09-18T04:09:06.421Z,100109.66
2022-09-18T04:11:41.174Z,100106.50
2022-09-18T04:14:09.849Z,100105.25
2022-09-18T04:16:38.281Z,100107.88
2022-09-18T04:19:06.737Z,100103.31
2022-09-18T04:21:36.799Z,100100.06
2022-09-18T04:24:06.313Z,100097.84
2022-09-18T04:26:35.879Z,100108.66
2022-09-18T04:29:05.979Z,100115.84
2022-09-18T04:31:38.236Z,100108.00
2022-09-18T04:34:11.341Z,100109.25
2022-09-18T04:36:41.477Z,100103.63
2022-09-18T04:39:11.166Z,100110.53
2022-09-18T04:41:39.888Z,100106.81
2022-09-18T04:44:08.576Z,100114.09
2022-09-18T04:46:37.164Z,100112.59
2022-09-18T04:49:05.864Z,100099.13
2022-09-18T04:51:34.860Z,100102.31
2022-09-18T04:54:05.545Z,100094.88
2022-09-18T04:56:37.531Z,100106.28
2022-09-18T04:59:06.145Z,100093.78
2022-09-18T05:01:36.643Z,100090.78
2022-09-18T05:04:10.541Z,100090.53
2022-09-18T05:07:01.896Z,100083.59
2022-09-18T05:09:32.030Z,100085.59
2022-09-18T05:12:00.383Z,100086.69
2022-09-18T05:14:28.837Z,100084.88
2022-09-18T05:17:01.889Z,100087.38
2022-09-18T05:19:37.953Z,100089.13
2022-09-18T05:22:12.977Z,100093.41
2022-09-18T05:24:47.744Z,100097.53
2022-09-18T05:27:16.303Z,100088.72
2022-09-18T05:29:44.888Z,100088.19
2022-09-18T05:32:20.203Z,100089.44
2022-09-18T05:34:49.194Z,100092.03
2022-09-18T05:37:19.103Z,100108.50
2022-09-18T05:39:52.989Z,100103.03
2022-09-18T05:42:21.355Z,100099.16
2022-09-18T05:44:51.053Z,100098.63
2022-09-18T05:47:24.380Z,100091.50
2022-09-18T05:49:53.941Z,100091.50
2022-09-18T05:52:25.153Z,100085.75
2022-09-18T05:54:55.900Z,100082.69
2022-09-18T05:57:25.257Z,100084.75
2022-09-18T05:59:53.577Z,100073.78
2022-09-18T06:02:21.919Z,100068.53
2022-09-18T06:05:19.447Z,100077.66
2022-09-18T06:07:47.871Z,100080.13
2022-09-18T06:10:23.488Z,100086.72
2022-09-18T06:12:51.845Z,100084.28
2022-09-18T06:15:20.250Z,100083.00
2022-09-18T06:17:52.926Z,100089.59
2022-09-18T06:20:21.617Z,100087.66
2022-09-18T06:22:49.887Z,100087.09
2022-09-18T06:25:27.555Z,100086.44
2022-09-18T06:28:00.055Z,100093.03
2022-09-18T06:30:30.105Z,100092.88
2022-09-18T06:33:03.059Z,100097.13
2022-09-18T06:35:31.485Z,100093.31
2022-09-18T06:38:03.239Z,100100.94
2022-09-18T06:40:54.512Z,100088.09
2022-09-18T06:43:50.324Z,100093.53
2022-09-18T06:46:38.696Z,100098.44
2022-09-18T06:49:29.492Z,100097.25
2022-09-18T06:51:58.105Z,100089.97
2022-09-18T06:54:26.616Z,100086.13
2022-09-18T06:56:58.272Z,100098.69
2022-09-18T06:59:26.547Z,100090.97
2022-09-18T07:01:55.970Z,100090.50
2022-09-18T07:04:56.759Z,100075.78
2022-09-18T07:07:25.324Z,100078.19
2022-09-18T07:09:54.210Z,100076.94
2022-09-18T07:12:29.101Z,100074.63
2022-09-18T07:14:57.757Z,100065.53
2022-09-18T07:17:28.107Z,100069.19
2022-09-18T07:19:58.423Z,100060.38
2022-09-18T07:22:37.467Z,100053.97
2022-09-18T07:25:08.230Z,100054.28
2022-09-18T07:27:38.438Z,100061.16
2022-09-18T07:30:08.786Z,100063.06
2022-09-18T07:32:37.280Z,100067.81
2022-09-18T07:35:11.731Z,100060.00
2022-09-18T07:37:40.987Z,100067.63
2022-09-18T07:40:15.697Z,100061.69
2022-09-18T07:43:07.113Z,100056.59
2022-09-18T07:45:39.850Z,100048.53
2022-09-18T07:48:08.823Z,100066.75
2022-09-18T07:50:43.765Z,100063.78
2022-09-18T07:53:12.234Z,100052.91
2022-09-18T07:55:47.225Z,100067.50
2022-09-18T07:58:17.650Z,100064.66
2022-09-18T08:01:07.407Z,100067.88
2022-09-18T08:03:45.843Z,100066.16
2022-09-18T08:06:34.107Z,100065.97
2022-09-18T08:09:14.644Z,100054.28
2022-09-18T08:12:10.210Z,100052.13
2022-09-18T08:15:03.440Z,100063.31
2022-09-18T08:17:48.204Z,100060.28
2022-09-18T08:20:43.044Z,100061.63
2022-09-18T08:23:27.002Z,100059.03
2022-09-18T08:25:55.789Z,100061.81
2022-09-18T08:28:24.629Z,100063.19
2022-09-18T08:31:00.006Z,100071.97
2022-09-18T08:33:28.419Z,100052.56
2022-09-18T08:35:56.961Z,100057.66
2022-09-18T08:38:33.272Z,100053.25
2022-09-18T08:41:37.881Z,100053.22
2022-09-18T08:44:13.788Z,100051.56
2022-09-18T08:46:50.170Z,100055.25
2022-09-18T08:49:29.153Z,100063.47
2022-09-18T08:52:08.073Z,100056.16
2022-09-18T08:54:55.760Z,100045.91
2022-09-18T08:57:47.746Z,100059.69
2022-09-18T09:00:22.439Z,100063.63
2022-09-18T09:03:30.084Z,100069.53
2022-09-18T09:06:02.483Z,100060.03
2022-09-18T09:09:21.521Z,100067.72
2022-09-18T09:12:04.809Z,100078.75
2022-09-18T09:15:22.107Z,100055.47
2022-09-18T09:18:11.869Z,100045.41
2022-09-18T09:20:54.110Z,100050.63
2022-09-18T09:23:45.774Z,100047.66
2022-09-18T09:26:28.204Z,100042.69
2022-09-18T09:29:19.912Z,100063.19
2022-09-18T09:32:19.171Z,100064.91
2022-09-18T09:35:10.613Z,100071.84
2022-09-18T09:37:49.460Z,100058.53
2022-09-18T09:40:25.937Z,100050.78
2022-09-18T09:43:02.283Z,100049.81
2022-09-18T09:45:36.296Z,100049.75
2022-09-18T09:48:16.225Z,100063.78
2022-09-18T09:50:56.260Z,100071.63
2022-09-18T09:53:28.986Z,100071.56
2022-09-18T09:56:10.634Z,100078.41
2022-09-18T09:58:50.264Z,100077.97
2022-09-18T10:01:25.559Z,100072.44
2022-09-18T10:04:13.591Z,100055.69
2022-09-18T10:06:54.817Z,100065.50
2022-09-18T10:09:40.798Z,100046.44
2022-09-18T10:12:27.719Z,100058.09
2022-09-18T10:15:21.648Z,100066.22
2022-09-18T10:17:55.064Z,100053.63
2022-09-18T10:20:28.405Z,100058.09
2022-09-18T10:23:03.816Z,100063.19
2022-09-18T10:25:44.827Z,100062.28
2022-09-18T10:28:15.163Z,100063.41
2022-09-18T10:31:00.678Z,100045.72
2022-09-18T10:33:35.592Z,100050.63
2022-09-18T10:36:21.559Z,100051.97
2022-09-18T10:38:50.771Z,100042.84
2022-09-18T10:41:36.793Z,100049.44
2022-09-18T10:44:26.592Z,100047.75
2022-09-18T10:47:07.202Z,100039.63
2022-09-18T10:49:41.679Z,100045.69
2022-09-18T10:52:31.951Z,100043.81
2022-09-18T10:55:17.228Z,100035.97
2022-09-18T10:58:13.452Z,100042.25
2022-09-18T11:00:56.685Z,100045.78
2022-09-18T11:03:40.586Z,100047.13
2022-09-18T11:06:17.843Z,100037.31
2022-09-18T11:08:50.615Z,100037.94
2022-09-18T11:11:27.859Z,100041.94
2022-09-18T11:14:02.164Z,100034.47
2022-09-18T11:16:44.024Z,100019.97
2022-09-18T11:19:24.246Z,100021.31
2022-09-18T11:21:55.966Z,100017.19
2022-09-18T11:24:28.008Z,100022.56
2022-09-18T11:27:20.150Z,100017.38
2022-09-18T11:29:50.287Z,100019.94
2022-09-18T11:32:25.202Z,100017.09
2022-09-18T11:34:58.820Z,100014.06
2022-09-18T11:37:37.223Z,100010.31
2022-09-18T11:40:16.347Z,100011.31
2022-09-18T11:42:46.634Z,100019.50
2022-09-18T11:45:41.803Z,100028.25
2022-09-18T11:48:25.424Z,100021.69
2022-09-18T11:50:58.055Z,100022.22
2022-09-18T11:53:28.726Z,100015.44
2022-09-18T11:56:06.371Z,100022.16
2022-09-18T11:58:44.848Z,100007.59
2022-09-18T12:01:29.238Z,100016.47
2022-09-18T12:04:07.600Z,100013.25
2022-09-18T12:06:42.967Z,100014.06
2022-09-18T12:09:18.781Z,100008.97
2022-09-18T12:11:56.356Z,100007.16
2022-09-18T12:14:33.966Z,99997.53
2022-09-18T12:17:22.912Z,100001.66
2022-09-18T12:19:57.897Z,100006.31
2022-09-18T12:22:35.472Z,100000.25
2022-09-18T12:25:14.532Z,99998.38
2022-09-18T12:28:11.446Z,99979.38
2022-09-18T12:30:50.848Z,99986.28
2022-09-18T12:33:35.136Z,99986.31
2022-09-18T12:36:33.839Z,99987.69
2022-09-18T12:39:28.487Z,100001.66
2022-09-18T12:42:09.693Z,99993.00
2022-09-18T12:45:14.553Z,99992.78
2022-09-18T12:48:06.112Z,100007.44
2022-09-18T12:51:04.360Z,100014.28
2022-09-18T12:53:49.783Z,100007.06
2022-09-18T12:56:41.495Z,100022.22
2022-09-18T12:59:33.247Z,100013.72
2022-09-18T13:02:15.975Z,100012.81
2022-09-18T13:04:51.265Z,100009.69
2022-09-18T13:07:28.095Z,100006.13
2022-09-18T13:10:04.752Z,100009.16
2022-09-18T13:12:41.304Z,100007.00
2022-09-18T13:15:18.375Z,100006.00
2022-09-18T13:17:52.095Z,100001.13
2022-09-18T13:20:26.852Z,100002.56
2022-09-18T13:22:57.590Z,100002.41
2022-09-18T13:25:33.414Z,100006.81
2022-09-18T13:28:05.862Z,100008.47
2022-09-18T13:30:34.384Z,100001.75
2022-09-18T13:33:03.575Z,100009.09
2022-09-18T13:35:34.253Z,100011.84
2022-09-18T13:38:15.642Z,100009.16
2022-09-18T13:40:46.999Z,100015.47
2022-09-18T13:43:40.568Z,100023.81
2022-09-18T13:46:11.155Z,100020.34
2022-09-18T13:48:47.055Z,100015.75
2022-09-18T13:51:22.236Z,100014.34
2022-09-18T13:54:23.002Z,100008.47
2022-09-18T13:57:21.547Z,100005.38
2022-09-18T13:59:54.109Z,100011.91
2022-09-18T14:02:30.930Z,100008.16
2022-09-18T14:05:29.670Z,99997.13
2022-09-18T14:08:35.595Z,99991.50
2022-09-18T14:11:17.315Z,100003.91
2022-09-18T14:13:51.755Z,100002.75
2022-09-18T14:16:38.729Z,100019.38
2022-09-18T14:19:38.182Z,100015.34
2022-09-18T14:22:24.252Z,100019.28
2022-09-18T14:25:03.427Z,100024.69
2022-09-18T14:27:40.266Z,100013.19
2022-09-18T14:30:22.659Z,100011.59
2022-09-18T14:33:20.346Z,100003.81
2022-09-18T14:35:55.724Z,99996.56
2022-09-18T14:38:29.396Z,99989.28
2022-09-18T14:41:08.872Z,99979.47
2022-09-18T14:43:40.850Z,99994.28
2022-09-18T14:46:20.498Z,99985.03
2022-09-18T14:48:49.148Z,99991.50
2022-09-18T14:51:21.171Z,99979.56
2022-09-18T14:53:52.740Z,99976.13
2022-09-18T14:56:28.611Z,99973.22
2022-09-18T14:59:01.471Z,99968.66
2022-09-18T15:01:32.633Z,99967.69
2022-09-18T15:04:04.038Z,99959.94
2022-09-18T15:06:38.400Z,99970.69
2022-09-18T15:09:09.830Z,99975.19
2022-09-18T15:11:58.811Z,99968.16
2022-09-18T15:14:42.787Z,99967.22
2022-09-18T15:17:20.691Z,99966.34
2022-09-18T15:20:01.060Z,99967.91
2022-09-18T15:22:31.873Z,99968.94
2022-09-18T15:25:01.846Z,99978.56
2022-09-18T15:27:31.572Z,99976.88
2022-09-18T15:30:06.168Z,99982.31
2022-09-18T15:32:40.051Z,99977.66
2022-09-18T15:35:17.881Z,99978.34
2022-09-18T15:37:53.513Z,99976.91
2022-09-18T15:40:28.577Z,99974.88
2022-09-18T15:43:01.931Z,99974.72
2022-09-18T15:45:34.055Z,99960.44
2022-09-18T15:48:23.994Z,99977.38
2022-09-18T15:51:09.762Z,99959.94
2022-09-18T15:53:38.831Z,99973.91
2022-09-18T15:56:18.130Z,99980.34
2022-09-18T15:58:53.291Z,99979.56
2022-09-18T16:01:33.600Z,99976.72
2022-09-18T16:04:15.978Z,99979.75
2022-09-18T16:06:55.452Z,99973.25
2022-09-18T16:09:33.690Z,99971.38
2022-09-18T16:12:03.324Z,99963.09
2022-09-18T16:14:59.467Z,99968.38
2022-09-18T16:17:53.896Z,99948.38
2022-09-18T16:20:38.625Z,99958.31
2022-09-18T16:23:20.596Z,99951.44
2022-09-18T16:26:07.572Z,99947.47
2022-09-18T16:28:41.290Z,99952.78
2022-09-18T16:31:10.465Z,99949.66
2022-09-18T16:33:51.476Z,99958.03
2022-09-18T16:36:27.931Z,99958.09
2022-09-18T16:38:56.697Z,99957.13
2022-09-18T16:41:25.320Z,99954.41
2022-09-18T16:43:54.055Z,99964.97
2022-09-18T16:46:25.197Z,99971.59
2022-09-18T16:48:55.716Z,99966.38
2022-09-18T16:51:24.139Z,99963.75
2022-09-18T16:53:52.355Z,99968.50
2022-09-18T16:56:27.335Z,99969.75
2022-09-18T16:58:58.597Z,99972.22
2022-09-18T17:01:28.080Z,99976.22
2022-09-18T17:03:57.826Z,99974.31
2022-09-18T17:06:26.422Z,99963.69
2022-09-18T17:08:55.240Z,99969.69
2022-09-18T17:11:23.392Z,99968.16
2022-09-18T17:13:52.105Z,99963.34
2022-09-18T17:16:41.209Z,99980.88
2022-09-18T17:19:10.757Z,99969.59
2022-09-18T17:21:39.856Z,99966.47
2022-09-18T17:24:08.304Z,99966.53
2022-09-18T17:26:37.968Z,99969.00
2022-09-18T17:29:07.040Z,99963.53
2022-09-18T17:31:35.662Z,99967.13
2022-09-18T17:34:04.466Z,99969.06
2022-09-18T17:36:36.826Z,99972.06
2022-09-18T17:39:05.460Z,99976.16
2022-09-18T17:41:34.397Z,99982.28
2022-09-18T17:44:03.724Z,99980.88
2022-09-18T17:46:32.333Z,99975.88
2022-09-18T17:49:01.462Z,99979.00
2022-09-18T17:51:30.130Z,99981.41
2022-09-18T17:54:02.970Z,99976.31
2022-09-18T17:56:32.735Z,99976.00
2022-09-18T17:59:05.466Z,99975.41
2022-09-18T18:01:36.355Z,99969.53
2022-09-18T18:04:04.930Z,99973.84
2022-09-18T18:06:33.796Z,99971.06
2022-09-18T18:09:05.322Z,99975.03
2022-09-18T18:11:34.510Z,99991.69
2022-09-18T18:14:03.371Z,99988.19
2022-09-18T18:16:32.701Z,99999.03
2022-09-18T18:19:03.723Z,100000.88
2022-09-18T18:21:34.743Z,100021.88
2022-09-18T18:24:08.940Z,100082.38
2022-09-18T18:26:37.972Z,100106.25
2022-09-18T18:29:08.031Z,100095.53
2022-09-18T18:31:36.308Z,100087.81
2022-09-18T18:34:05.341Z,100079.78
2022-09-18T18:36:34.497Z,100086.41
2022-09-18T18:39:06.141Z,100079.53
2022-09-18T18:41:34.673Z,100073.66
2022-09-18T18:44:05.586Z,100076.25
2022-09-18T18:46:36.729Z,100076.31
2022-09-18T18:49:09.005Z,100081.09
2022-09-18T18:51:40.665Z,100083.59
2022-09-18T18:54:10.743Z,100078.53
2022-09-18T18:56:40.397Z,100078.53
2022-09-18T18:59:17.251Z,100068.50
2022-09-18T19:01:47.265Z,100076.31
2022-09-18T19:04:18.920Z,100077.44
2022-09-18T19:06:48.819Z,100094.03
2022-09-18T19:09:21.526Z,100079.22
2022-09-18T19:11:50.963Z,100103.78
2022-09-18T19:14:21.591Z,100094.47
2022-09-18T19:16:52.359Z,100089.78
2022-09-18T19:19:24.013Z,100093.91
2022-09-18T19:21:53.069Z,100086.09
2022-09-18T19:24:23.070Z,100089.78
2022-09-18T19:26:51.416Z,100088.56
2022-09-18T19:29:22.272Z,100097.50
2022-09-18T19:31:51.370Z,100102.41
2022-09-18T19:34:22.266Z,100112.44
2022-09-18T19:36:51.817Z,100108.31
2022-09-18T19:39:24.462Z,100107.75
2022-09-18T19:41:55.973Z,100125.16
2022-09-18T19:44:32.807Z,100124.66
2022-09-18T19:47:04.576Z,100132.16
2022-09-18T19:49:38.782Z,100138.06
2022-09-18T19:52:17.911Z,100144.53
2022-09-18T19:54:48.479Z,100148.22
2022-09-18T19:57:17.892Z,100149.72
2022-09-18T19:59:47.655Z,100154.41
2022-09-18T20:02:18.262Z,100162.25
2022-09-18T20:04:47.252Z,100164.81
2022-09-18T20:07:16.089Z,100164.88
2022-09-18T20:09:44.540Z,100161.25
2022-09-18T20:12:14.152Z,100169.06
2022-09-18T20:14:42.676Z,100170.47
2022-09-18T20:17:11.283Z,100165.81
2022-09-18T20:19:39.618Z,100169.09
2022-09-18T20:22:07.943Z,100171.81
2022-09-18T20:24:36.535Z,100170.97
2022-09-18T20:27:05.361Z,100177.03
2022-09-18T20:29:35.610Z,100180.03
2022-09-18T20:32:04.204Z,100177.44
2022-09-18T20:34:32.502Z,100182.66
2022-09-18T20:37:00.773Z,100187.41
2022-09-18T20:39:30.078Z,100187.13
2022-09-18T20:42:00.697Z,100185.72
2022-09-18T20:44:29.659Z,100186.53
2022-09-18T20:47:00.050Z,100184.31
2022-09-18T20:49:32.016Z,100191.69
2022-09-18T20:52:03.673Z,100184.34
2022-09-18T20:54:32.618Z,100196.13
2022-09-18T20:57:01.263Z,100197.34
2022-09-18T20:59:31.403Z,100200.78
2022-09-18T21:02:01.144Z,100204.50
2022-09-18T21:04:29.727Z,100201.97
2022-09-18T21:07:01.629Z,100210.34
2022-09-18T21:09:31.198Z,100214.53
2022-09-18T21:11:59.481Z,100211.53
2022-09-18T21:14:29.030Z,100205.31
2022-09-18T21:16:57.662Z,100212.69
2022-09-18T21:19:28.161Z,100218.19
2022-09-18T21:21:56.647Z,100213.53
2022-09-18T21:24:25.961Z,100216.09
2022-09-18T21:26:54.935Z,100215.22
2022-09-18T21:29:26.200Z,100222.66
2022-09-18T21:31:57.954Z,100226.13
2022-09-18T21:34:31.116Z,100228.84
2022-09-18T21:37:01.715Z,100229.38
2022-09-18T21:39:31.582Z,100236.03
2022-09-18T21:42:01.586Z,100238.84
2022-09-18T21:44:31.908Z,100229.94
2022-09-18T21:47:04.965Z,100232.13
2022-09-18T21:49:35.853Z,100234.78
2022-09-18T21:52:08.728Z,100229.78
2022-09-18T21:54:37.531Z,100234.41
2022-09-18T21:57:07.158Z,100244.00
2022-09-18T21:59:35.942Z,100240.22
2022-09-18T22:02:05.773Z,100243.75
2022-09-18T22:04:36.531Z,100234.06
2022-09-18T22:07:05.979Z,100245.13
2022-09-18T22:09:38.306Z,100241.19
2022-09-18T22:12:07.548Z,100249.25
2022-09-18T22:14:38.221Z,100241.31
2022-09-18T22:17:09.247Z,100248.94
2022-09-18T22:19:41.496Z,100254.91
2022-09-18T22:22:11.145Z,100261.31
2022-09-18T22:24:39.917Z,100251.56
2022-09-18T22:27:08.935Z,100269.53
2022-09-18T22:29:41.061Z,100259.38
2022-09-18T22:32:10.041Z,100258.09
2022-09-18T22:34:41.542Z,100261.56
2022-09-18T22:37:11.499Z,100257.06
2022-09-18T22:39:39.718Z,100255.81
2022-09-18T22:42:08.185Z,100262.81
2022-09-18T22:44:36.510Z,100259.72
2022-09-18T22:47:05.402Z,100258.94
2022-09-18T22:49:34.146Z,100262.91
2022-09-18T22:52:04.129Z,100260.19
2022-09-18T22:54:32.709Z,100265.19
2022-09-18T22:57:01.324Z,100266.75
2022-09-18T22:59:29.719Z,100266.59
2022-09-18T23:02:00.820Z,100265.56
2022-09-18T23:04:31.601Z,100265.19
2022-09-18T23:07:01.205Z,100277.03
2022-09-18T23:09:31.569Z,100265.34
2022-09-18T23:12:00.868Z,100277.72
2022-09-18T23:14:31.480Z,100282.97
2022-09-18T23:17:01.787Z,100278.44
2022-09-18T23:19:33.295Z,100278.03
2022-09-18T23:22:01.958Z,100276.69
2022-09-18T23:24:32.900Z,100280.00
2022-09-18T23:27:02.263Z,100283.13
2022-09-18T23:29:32.115Z,100271.88
2022-09-18T23:32:01.350Z,100283.63
2022-09-18T23:34:33.695Z,100277.84
2022-09-18T23:37:02.711Z,100276.00
2022-09-18T23:39:34.551Z,100287.19
2022-09-18T23:42:05.690Z,100286.81
2022-09-18T23:44:34.472Z,100281.72
2022-09-18T23:47:03.342Z,100287.44
2022-09-18T23:49:32.330Z,100281.59
2022-09-18T23:52:01.899Z,100287.34
2022-09-18T23:54:33.096Z,100288.94
2022-09-18T23:57:02.318Z,100296.50
2022-09-18T23:59:30.912Z,100293.59
